EDT,Max TemperatureF,Mean TemperatureF,Min TemperatureF,Max Dew PointF,MeanDew PointF,Min DewpointF,Max Humidity, Mean Humidity, Min Humidity, Max Sea Level PressureIn, Mean Sea Level PressureIn, Min Sea Level PressureIn, Max VisibilityMiles, Mean VisibilityMiles, Min VisibilityMiles, Max Wind SpeedMPH, Mean Wind SpeedMPH, Max Gust SpeedMPH,PrecipitationIn, CloudCover, Events, WindDirDegrees
2012-9-1,81,74,66,65,60,54,76,64,54,30.10,29.99,29.86,10,10,10,13,6,16,0.00,2,,44
2012-9-2,73,66,59,61,57,47,93,74,39,30.13,30.09,30.05,10,10,10,7,3,,0.00,4,,137
2012-9-3,73,64,57,62,58,53,96,75,57,30.21,30.18,30.12,10,10,10,12,4,,0.00,1,,118
2012-9-4,75,70,66,72,68,62,96,91,83,30.15,30.02,29.90,10,8,2,13,8,22,0.30,8,Rain,152
2012-9-5,75,72,68,73,71,64,100,93,87,29.90,29.80,29.76,10,6,1,15,9,28,0.17,8,Rain-Thunderstorm,192
2012-9-6,73,67,61,66,63,60,97,85,73,29.90,29.88,29.83,10,10,10,10,4,,0.00,2,,173
2012-9-7,79,72,66,72,69,66,100,91,74,29.95,29.91,29.88,10,6,0,12,2,17,0.00,5,Fog,195
2012-9-8,78,74,69,73,71,66,96,90,82,29.92,29.80,29.67,10,9,4,20,10,28,0.04,6,,175
2012-9-9,71,64,57,59,56,51,93,77,51,29.84,29.80,29.73,10,10,10,14,6,18,0.00,3,Rain,331
2012-9-10,70,62,55,56,49,43,96,66,47,30.05,29.92,29.83,10,10,10,16,6,22,0.00,2,,343
2012-9-11,68,60,53,54,46,40,78,63,40,30.28,30.19,30.06,10,10,10,10,7,17,0.00,0,,316
2012-9-12,73,62,51,60,56,50,96,77,59,30.37,30.33,30.28,10,10,7,13,2,,0.00,0,,188
2012-9-13,73,65,57,62,59,55,96,80,64,30.38,30.34,30.29,10,9,2,13,3,20,0.00,0,,194
2012-9-14,73,65,57,64,60,55,100,89,68,30.29,30.23,30.11,10,7,0,13,2,20,0.00,0,Fog,195
2012-9-15,72,64,54,65,57,48,97,75,47,30.10,30.04,29.99,10,10,10,16,6,24,0.00,3,,300
2012-9-16,70,61,52,50,47,45,89,65,42,30.09,30.05,30.00,10,10,10,12,4,20,0.00,0,,298
2012-9-17,71,60,48,56,51,47,96,72,49,30.11,30.06,30.04,10,10,9,10,2,17,0.00,0,,219
2012-9-18,73,66,61,68,63,55,87,81,75,30.06,29.91,29.76,10,10,8,22,11,36,0.00,6,,161
2012-9-19,71,63,55,70,57,44,96,77,41,30.17,29.88,29.73,10,8,1,23,14,37,0.66,5,Rain,266
2012-9-20,68,60,54,49,47,44,80,65,49,30.22,30.18,30.15,10,10,10,17,10,23,0.00,0,,46
2012-9-21,66,58,50,54,51,48,96,82,60,30.14,30.09,30.00,10,10,10,13,5,,0.00,2,,18
2012-9-22,68,60,55,65,58,54,100,91,75,29.99,29.94,29.84,10,6,1,14,6,20,0.00,6,,303
2012-9-23,69,60,51,66,53,43,94,72,42,30.09,29.95,29.82,10,10,5,15,8,22,0.00,3,Rain,308
2012-9-24,64,55,46,47,43,40,89,66,43,30.13,30.10,30.07,10,10,10,8,3,,0.00,1,,339
2012-9-25,69,58,46,56,48,40,89,66,46,30.20,30.17,30.14,10,10,10,15,4,30,0.00,0,,204
2012-9-26,72,66,63,64,61,54,94,81,72,30.16,30.08,30.04,10,10,7,16,9,28,0.00,6,,198
2012-9-27,73,64,57,64,57,50,93,76,61,30.22,30.13,30.01,10,10,8,10,4,,0.00,6,,47
2012-9-28,64,60,55,64,56,49,100,86,67,30.23,30.06,29.93,10,8,2,14,7,23,0.29,8,Rain,109
2012-9-29,59,57,55,58,55,53,100,95,89,29.92,29.90,29.87,10,8,2,9,7,16,0.15,8,Rain,9
2012-9-30,60,58,55,55,53,50,96,90,75,29.90,29.81,29.75,10,9,2,10,5,16,0.11,7,Rain,3